Time;durP1;ratioP1;P1;durP2;ratioP2;P2;SDS_P1;SDS_P2;PMS_P1;PMS_P2;Temp;Humidity;BMP_temperature;BMP_pressure;BME280_temperature;BME280_humidity;BME280_pressure;Samples;Min_cycle;Max_cycle;Signal;HPM_P1;HPM_P2
2021/12/30 00:00:23;;;;;;;62.53;37.28;;;;;;;;;;9990190;29;20514;-58
2021/12/30 00:05:22;;;;;;;47.45;33.45;;;;;;;;;;9990654;29;20094;-59
2021/12/30 00:10:21;;;;;;;44.15;28.23;;;;;;;;;;9989940;29;20071;-58
2021/12/30 00:15:20;;;;;;;64.32;22.13;;;;;;;;;;9990597;29;20076;-58
2021/12/30 00:20:18;;;;;;;37.20;24.30;;;;;;;;;;9989528;29;20068;-58
2021/12/30 00:25:16;;;;;;;39.10;27.67;;;;;;;;;;9990144;29;20068;-58
2021/12/30 00:30:16;;;;;;;71.18;37.22;;;;;;;;;;9987211;29;20144;-58
2021/12/30 00:35:14;;;;;;;41.85;30.35;;;;;;;;;;9988943;29;20108;-58
2021/12/30 00:40:13;;;;;;;75.45;50.40;;;;;;;;;;10000355;29;20068;-58
2021/12/30 00:45:12;;;;;;;46.47;27.98;;;;;;;;;;9990936;29;20077;-56
2021/12/30 00:50:12;;;;;;;47.13;29.45;;;;;;;;;;9993554;29;20091;-58
2021/12/30 00:55:10;;;;;;;30.90;21.65;;;;;;;;;;9989018;29;20514;-58
2021/12/30 01:00:10;;;;;;;45.22;27.38;;;;;;;;;;9988419;29;20076;-59
2021/12/30 01:05:09;;;;;;;51.80;24.13;;;;;;;;;;9987667;29;20068;-59
2021/12/30 01:10:10;;;;;;;28.08;17.08;;;;;;;;;;9986375;29;20076;-57
2021/12/30 01:15:11;;;;;;;34.85;18.02;;;;;;;;;;9998398;29;20074;-58
2021/12/30 01:20:10;;;;;;;45.63;21.85;;;;;;;;;;9987166;29;20525;-57
2021/12/30 01:25:11;;;;;;;35.08;18.45;;;;;;;;;;9986711;29;20079;-58
2021/12/30 01:30:11;;;;;;;45.90;19.35;;;;;;;;;;10006112;29;20102;-57
2021/12/30 01:35:14;;;;;;;22.02;16.48;;;;;;;;;;10012380;29;20074;-58
2021/12/30 01:40:16;;;;;;;53.80;27.45;;;;;;;;;;9997123;29;20542;-58
2021/12/30 01:45:15;;;;;;;73.95;18.50;;;;;;;;;;9985113;29;20477;-58
2021/12/30 01:50:13;;;;;;;84.18;22.83;;;;;;;;;;9990904;29;20078;-58
2021/12/30 01:55:12;;;;;;;55.15;22.35;;;;;;;;;;9983483;29;20060;-58
2021/12/30 02:00:14;;;;;;;187.63;34.10;;;;;;;;;;9984465;29;20124;-58
2021/12/30 02:05:14;;;;;;;42.45;24.90;;;;;;;;;;9983963;29;20160;-58
2021/12/30 02:10:13;;;;;;;71.78;33.20;;;;;;;;;;9994771;29;20557;-58
2021/12/30 02:15:14;;;;;;;90.25;24.38;;;;;;;;;;9981221;29;20075;-57
2021/12/30 02:20:34;;;;;;;71.28;22.50;;;;;;;;;;9979414;29;20071;-58
2021/12/30 02:25:32;;;;;;;24.83;17.15;;;;;;;;;;10001742;29;20626;-58
2021/12/30 02:30:31;;;;;;;60.28;21.50;;;;;;;;;;10008982;29;20094;-60
2021/12/30 02:35:31;;;;;;;72.10;22.25;;;;;;;;;;9996520;29;20064;-58
2021/12/30 02:40:32;;;;;;;36.05;21.23;;;;;;;;;;9995640;29;20073;-58
2021/12/30 02:45:30;;;;;;;29.75;19.88;;;;;;;;;;9983655;29;20068;-58
2021/12/30 02:50:29;;;;;;;28.05;17.48;;;;;;;;;;9995804;29;20075;-58
2021/12/30 02:55:29;;;;;;;61.78;18.08;;;;;;;;;;10001710;29;20071;-57
2021/12/30 03:00:28;;;;;;;24.30;18.35;;;;;;;;;;10006763;29;20106;-56
2021/12/30 03:05:27;;;;;;;36.88;19.92;;;;;;;;;;9987653;29;20068;-57
2021/12/30 03:10:28;;;;;;;49.58;23.70;;;;;;;;;;9998247;29;20518;-57
2021/12/30 03:15:27;;;;;;;47.15;29.25;;;;;;;;;;10001882;29;20052;-58
2021/12/30 03:20:26;;;;;;;32.15;23.67;;;;;;;;;;10011595;29;20562;-58
2021/12/30 03:25:24;;;;;;;60.30;28.48;;;;;;;;;;9984121;29;20064;-58
2021/12/30 03:30:23;;;;;;;29.70;21.45;;;;;;;;;;9993765;29;20256;-58
2021/12/30 03:35:23;;;;;;;35.78;24.58;;;;;;;;;;9988515;29;20082;-57
2021/12/30 03:40:21;;;;;;;27.33;20.73;;;;;;;;;;9986063;29;20098;-57
2021/12/30 03:45:21;;;;;;;24.92;20.08;;;;;;;;;;9981776;29;20092;-58
2021/12/30 03:50:22;;;;;;;46.47;26.67;;;;;;;;;;9988300;29;20095;-58
2021/12/30 03:55:22;;;;;;;47.10;28.15;;;;;;;;;;9988570;29;20489;-58
2021/12/30 04:00:21;;;;;;;39.90;28.40;;;;;;;;;;9991452;29;20517;-58
2021/12/30 04:05:20;;;;;;;33.90;25.52;;;;;;;;;;9990494;29;20450;-58
2021/12/30 04:10:21;;;;;;;25.63;19.05;;;;;;;;;;9989381;29;20079;-57
2021/12/30 04:15:21;;;;;;;39.38;25.80;;;;;;;;;;9994433;29;20106;-56
2021/12/30 04:20:19;;;;;;;54.75;34.75;;;;;;;;;;9994974;29;20082;-55
2021/12/30 04:25:18;;;;;;;52.80;34.90;;;;;;;;;;9982434;29;20114;-55
2021/12/30 04:30:17;;;;;;;40.40;23.92;;;;;;;;;;9982653;29;20071;-58
2021/12/30 04:35:16;;;;;;;40.28;28.95;;;;;;;;;;9982031;29;20072;-57
2021/12/30 04:40:15;;;;;;;40.28;30.50;;;;;;;;;;9993703;29;20111;-57
2021/12/30 04:45:13;;;;;;;82.40;52.72;;;;;;;;;;9985477;29;20068;-57
2021/12/30 04:50:12;;;;;;;93.20;35.50;;;;;;;;;;10002330;29;20067;-58
2021/12/30 04:55:12;;;;;;;56.95;23.10;;;;;;;;;;10011059;29;20459;-58
2021/12/30 05:00:12;;;;;;;56.25;28.40;;;;;;;;;;10028721;29;20078;-58
2021/12/30 05:05:10;;;;;;;34.08;23.02;;;;;;;;;;10017532;29;20087;-57
2021/12/30 05:10:09;;;;;;;41.47;22.67;;;;;;;;;;9994262;29;20072;-57
2021/12/30 05:15:09;;;;;;;84.25;37.83;;;;;;;;;;9980904;29;20091;-58
2021/12/30 05:20:08;;;;;;;78.68;35.63;;;;;;;;;;9984212;29;20151;-55
2021/12/30 05:25:08;;;;;;;192.30;27.45;;;;;;;;;;9979229;29;20068;-57
2021/12/30 05:30:07;;;;;;;40.55;19.48;;;;;;;;;;9987604;29;20092;-57
2021/12/30 05:35:09;;;;;;;69.97;27.70;;;;;;;;;;9985263;29;20076;-57
2021/12/30 05:40:08;;;;;;;121.75;22.50;;;;;;;;;;9981786;29;20080;-58
2021/12/30 05:45:07;;;;;;;41.88;18.27;;;;;;;;;;10007334;29;20086;-57
2021/12/30 05:50:09;;;;;;;44.25;24.65;;;;;;;;;;10000823;29;20051;-58
2021/12/30 05:55:08;;;;;;;89.97;41.55;;;;;;;;;;9983417;29;20083;-57
2021/12/30 06:00:07;;;;;;;148.85;38.30;;;;;;;;;;10005054;29;20592;-56
2021/12/30 06:05:07;;;;;;;79.75;40.20;;;;;;;;;;10010075;29;20084;-59
2021/12/30 06:10:06;;;;;;;68.40;28.30;;;;;;;;;;10024588;29;21001;-58
2021/12/30 06:15:05;;;;;;;60.67;31.63;;;;;;;;;;9992227;29;20475;-58
2021/12/30 06:20:04;;;;;;;58.92;34.65;;;;;;;;;;9985942;29;20080;-56
2021/12/30 06:25:04;;;;;;;56.88;26.75;;;;;;;;;;9985483;29;20083;-58
2021/12/30 06:30:03;;;;;;;57.67;32.85;;;;;;;;;;9985166;29;20084;-58
2021/12/30 06:35:01;;;;;;;80.53;34.13;;;;;;;;;;9986173;29;20499;-58
2021/12/30 06:39:59;;;;;;;68.05;39.92;;;;;;;;;;9985679;29;20443;-58
2021/12/30 06:45:01;;;;;;;121.55;65.75;;;;;;;;;;9996875;29;20076;-58
2021/12/30 06:50:02;;;;;;;89.43;57.85;;;;;;;;;;9989239;29;20071;-56
2021/12/30 06:55:00;;;;;;;78.10;48.05;;;;;;;;;;9977232;29;20117;-57
2021/12/30 06:59:59;;;;;;;52.17;31.17;;;;;;;;;;9993108;29;20068;-58
2021/12/30 07:04:58;;;;;;;55.33;41.22;;;;;;;;;;9997933;29;20536;-58
2021/12/30 07:09:57;;;;;;;64.72;37.97;;;;;;;;;;9983897;29;20067;-58
2021/12/30 07:14:56;;;;;;;81.95;52.55;;;;;;;;;;9991398;29;20657;-57
2021/12/30 07:19:54;;;;;;;74.88;52.95;;;;;;;;;;9991208;29;20443;-57
2021/12/30 07:24:55;;;;;;;102.65;60.53;;;;;;;;;;9995858;29;20415;-58
2021/12/30 07:29:54;;;;;;;84.65;52.03;;;;;;;;;;9987258;29;20474;-58
2021/12/30 07:34:52;;;;;;;88.97;56.88;;;;;;;;;;9973003;29;20059;-52
2021/12/30 07:39:50;;;;;;;88.03;53.47;;;;;;;;;;9986807;29;20068;-56
2021/12/30 07:44:50;;;;;;;54.70;36.67;;;;;;;;;;9992937;29;20469;-56
2021/12/30 07:49:48;;;;;;;118.43;65.95;;;;;;;;;;9995798;29;20110;-54
2021/12/30 07:54:46;;;;;;;167.75;96.55;;;;;;;;;;9985885;29;20280;-58
2021/12/30 07:59:45;;;;;;;106.05;49.88;;;;;;;;;;9987779;29;20166;-57
2021/12/30 08:04:44;;;;;;;130.50;62.83;;;;;;;;;;9986029;29;20420;-58
2021/12/30 08:09:43;;;;;;;96.03;51.33;;;;;;;;;;9989993;29;20067;-58
2021/12/30 08:14:41;;;;;;;94.13;50.78;;;;;;;;;;9984216;29;20163;-58
2021/12/30 08:19:39;;;;;;;91.20;46.15;;;;;;;;;;9991470;29;20095;-57
2021/12/30 08:24:39;;;;;;;82.97;41.85;;;;;;;;;;9994899;29;20076;-59
2021/12/30 08:29:43;;;;;;;134.93;41.85;;;;;;;;;;10009430;29;20163;-59
2021/12/30 08:34:41;;;;;;;296.15;52.42;;;;;;;;;;9997845;29;20083;-55
2021/12/30 08:39:41;;;;;;;92.93;50.00;;;;;;;;;;9993427;29;20083;-59
2021/12/30 08:44:40;;;;;;;101.70;50.38;;;;;;;;;;9981765;29;20064;-58
2021/12/30 08:49:41;;;;;;;77.85;45.17;;;;;;;;;;9984895;29;20068;-56
2021/12/30 08:54:40;;;;;;;113.72;66.68;;;;;;;;;;9988627;29;20080;-58
2021/12/30 08:59:39;;;;;;;115.70;50.53;;;;;;;;;;9991183;29;20078;-58
2021/12/30 09:04:37;;;;;;;192.63;90.53;;;;;;;;;;9989692;29;20088;-56
2021/12/30 09:09:36;;;;;;;132.75;57.67;;;;;;;;;;9991906;29;20233;-59
2021/12/30 09:14:35;;;;;;;193.30;56.42;;;;;;;;;;9988516;29;20411;-59
2021/12/30 09:19:34;;;;;;;251.00;57.08;;;;;;;;;;9994023;29;20079;-58
2021/12/30 09:24:32;;;;;;;168.02;49.35;;;;;;;;;;9998131;29;20149;-58
2021/12/30 09:29:30;;;;;;;49.33;29.70;;;;;;;;;;9998621;29;20110;-58
2021/12/30 09:34:30;;;;;;;153.73;51.70;;;;;;;;;;9977794;29;20087;-59
2021/12/30 09:39:28;;;;;;;67.95;33.75;;;;;;;;;;9977298;29;20087;-58
2021/12/30 09:44:27;;;;;;;59.88;29.83;;;;;;;;;;9980198;29;20072;-58
2021/12/30 09:49:25;;;;;;;57.58;37.13;;;;;;;;;;9981956;29;20068;-58
2021/12/30 09:54:25;;;;;;;138.32;69.85;;;;;;;;;;9974303;29;20084;-59
2021/12/30 09:59:25;;;;;;;142.70;91.72;;;;;;;;;;10000918;29;20068;-58
2021/12/30 10:04:30;;;;;;;73.68;46.58;;;;;;;;;;9977522;29;20072;-59
2021/12/30 10:09:49;;;;;;;67.88;42.40;;;;;;;;;;9976313;29;20059;-59
2021/12/30 10:14:53;;;;;;;68.13;42.92;;;;;;;;;;9974441;29;20075;-59
2021/12/30 10:19:52;;;;;;;146.80;81.22;;;;;;;;;;9975048;29;20520;-58
2021/12/30 10:24:52;;;;;;;78.70;49.33;;;;;;;;;;9972897;29;20411;-58
2021/12/30 10:29:51;;;;;;;91.93;54.03;;;;;;;;;;9976230;29;20127;-59
2021/12/30 10:35:05;;;;;;;119.60;72.18;;;;;;;;;;9994513;29;20079;-59
2021/12/30 10:40:06;;;;;;;88.63;45.08;;;;;;;;;;10023270;29;20063;-58
2021/12/30 10:45:06;;;;;;;58.30;39.92;;;;;;;;;;9989736;29;20476;-58
2021/12/30 10:50:06;;;;;;;105.93;56.75;;;;;;;;;;9976340;29;20095;-59
2021/12/30 10:55:11;;;;;;;64.65;39.47;;;;;;;;;;9978624;29;20478;-59
2021/12/30 11:00:10;;;;;;;41.67;28.42;;;;;;;;;;9971606;29;20483;-59
2021/12/30 11:05:10;;;;;;;85.05;53.47;;;;;;;;;;9990120;29;20098;-61
2021/12/30 11:10:09;;;;;;;62.75;39.75;;;;;;;;;;9985010;29;20075;-58
2021/12/30 11:15:19;;;;;;;60.60;35.63;;;;;;;;;;9993008;29;20088;-58
2021/12/30 11:20:19;;;;;;;40.08;26.73;;;;;;;;;;10004077;29;20114;-58
2021/12/30 11:25:18;;;;;;;45.67;36.72;;;;;;;;;;9980704;29;20712;-58
2021/12/30 11:30:18;;;;;;;81.70;34.83;;;;;;;;;;9975597;29;20478;-58
2021/12/30 11:35:18;;;;;;;58.40;41.95;;;;;;;;;;9962764;29;20077;-59
2021/12/30 11:40:18;;;;;;;112.28;41.78;;;;;;;;;;9970916;29;20455;-58
2021/12/30 11:45:25;;;;;;;65.38;45.45;;;;;;;;;;9983462;29;20075;-58
2021/12/30 11:50:31;;;;;;;58.33;37.70;;;;;;;;;;9983819;29;20099;-58
2021/12/30 11:55:43;;;;;;;39.47;30.60;;;;;;;;;;9986207;29;20088;-58
2021/12/30 12:00:43;;;;;;;49.28;33.28;;;;;;;;;;10003295;29;20082;-58
2021/12/30 12:05:42;;;;;;;39.50;30.48;;;;;;;;;;10014214;29;20572;-59
2021/12/30 12:10:41;;;;;;;81.55;52.45;;;;;;;;;;10017847;29;20088;-58
2021/12/30 12:15:44;;;;;;;99.70;53.58;;;;;;;;;;9984345;29;20075;-59
2021/12/30 12:20:51;;;;;;;74.90;44.67;;;;;;;;;;9983050;29;20082;-58
2021/12/30 12:26:04;;;;;;;78.85;46.33;;;;;;;;;;9996977;29;20091;-59
2021/12/30 12:31:07;;;;;;;55.40;35.53;;;;;;;;;;9987791;29;20533;-58
2021/12/30 12:36:10;;;;;;;74.32;44.35;;;;;;;;;;10006504;29;20103;-58
2021/12/30 12:41:19;;;;;;;180.95;98.30;;;;;;;;;;10018067;29;20054;-59
2021/12/30 12:46:36;;;;;;;98.25;60.00;;;;;;;;;;10021164;29;20092;-58
2021/12/30 12:51:36;;;;;;;104.53;67.15;;;;;;;;;;10036972;29;20067;-58
2021/12/30 12:56:36;;;;;;;321.55;179.02;;;;;;;;;;10008199;29;20079;-58
2021/12/30 13:01:36;;;;;;;131.68;77.07;;;;;;;;;;10023509;29;20063;-58
2021/12/30 13:06:37;;;;;;;126.72;77.32;;;;;;;;;;9999102;29;20502;-58
2021/12/30 13:11:37;;;;;;;131.98;81.95;;;;;;;;;;9984697;29;20537;-58
2021/12/30 13:16:40;;;;;;;120.75;67.80;;;;;;;;;;9991680;29;20095;-58
2021/12/30 13:21:53;;;;;;;100.95;54.55;;;;;;;;;;9980135;29;20071;-58
2021/12/30 13:26:52;;;;;;;129.15;76.22;;;;;;;;;;9985964;29;20086;-58
2021/12/30 13:31:58;;;;;;;240.85;129.20;;;;;;;;;;9992221;29;20471;-58
2021/12/30 13:37:09;;;;;;;114.97;59.38;;;;;;;;;;9987541;29;20072;-58
2021/12/30 13:42:11;;;;;;;89.97;46.80;;;;;;;;;;9999167;29;20071;-58
2021/12/30 13:47:22;;;;;;;105.30;58.20;;;;;;;;;;10009196;29;20066;-57
2021/12/30 13:52:21;;;;;;;167.60;69.80;;;;;;;;;;9997854;29;20083;-58
2021/12/30 13:57:26;;;;;;;124.85;59.10;;;;;;;;;;9978281;29;20497;-59
2021/12/30 14:02:25;;;;;;;115.77;63.50;;;;;;;;;;9973987;29;20102;-56
2021/12/30 14:07:24;;;;;;;81.97;46.58;;;;;;;;;;9982393;29;20078;-57
2021/12/30 14:12:22;;;;;;;100.88;57.83;;;;;;;;;;9977241;29;20083;-58
2021/12/30 14:17:20;;;;;;;104.93;61.55;;;;;;;;;;9978899;29;20587;-56
2021/12/30 14:22:20;;;;;;;124.13;62.20;;;;;;;;;;9980179;29;20059;-59
2021/12/30 14:27:20;;;;;;;89.32;50.47;;;;;;;;;;9992772;29;20071;-58
2021/12/30 14:32:23;;;;;;;105.63;51.28;;;;;;;;;;9973143;29;20103;-59
2021/12/30 14:37:26;;;;;;;117.95;64.65;;;;;;;;;;9976404;29;20071;-58
2021/12/30 14:42:27;;;;;;;152.65;64.15;;;;;;;;;;9979062;29;20494;-57
2021/12/30 14:47:26;;;;;;;126.30;67.28;;;;;;;;;;9982417;29;20087;-58
2021/12/30 14:52:26;;;;;;;119.45;61.72;;;;;;;;;;9988720;29;20504;-57
2021/12/30 14:57:25;;;;;;;170.00;101.32;;;;;;;;;;9962803;29;20147;-55
2021/12/30 15:02:26;;;;;;;108.53;69.32;;;;;;;;;;9966230;29;20072;-57
2021/12/30 15:07:26;;;;;;;196.57;77.22;;;;;;;;;;9976946;29;20075;-58
2021/12/30 15:12:25;;;;;;;145.05;78.55;;;;;;;;;;9978939;29;20080;-59
2021/12/30 15:17:24;;;;;;;166.07;68.40;;;;;;;;;;9984816;29;20540;-58
2021/12/30 15:22:22;;;;;;;138.85;71.00;;;;;;;;;;9972546;29;20088;-58
2021/12/30 15:27:22;;;;;;;133.55;72.00;;;;;;;;;;9967940;29;20095;-58
2021/12/30 15:32:20;;;;;;;124.65;68.63;;;;;;;;;;9971436;29;20080;-58
2021/12/30 15:37:18;;;;;;;177.73;89.85;;;;;;;;;;9981457;29;20080;-59
2021/12/30 15:42:17;;;;;;;131.82;70.68;;;;;;;;;;9991457;29;20075;-60
2021/12/30 15:47:17;;;;;;;236.02;117.50;;;;;;;;;;9991784;29;20087;-58
2021/12/30 15:52:17;;;;;;;317.17;137.98;;;;;;;;;;9997663;29;20103;-59
2021/12/30 15:57:16;;;;;;;244.10;103.32;;;;;;;;;;9997152;29;20075;-59
2021/12/30 16:02:14;;;;;;;235.60;95.20;;;;;;;;;;9990940;29;20068;-59
2021/12/30 16:07:14;;;;;;;182.57;97.28;;;;;;;;;;10016606;29;20506;-59
2021/12/30 16:12:12;;;;;;;95.68;55.42;;;;;;;;;;9977184;29;20075;-58
2021/12/30 16:17:10;;;;;;;137.70;72.32;;;;;;;;;;9980444;29;20120;-59
2021/12/30 16:22:09;;;;;;;116.63;62.28;;;;;;;;;;9984349;29;20067;-59
2021/12/30 16:27:08;;;;;;;184.18;83.88;;;;;;;;;;9979036;29;20068;-59
2021/12/30 16:32:07;;;;;;;231.43;104.85;;;;;;;;;;9991254;29;20075;-59
2021/12/30 16:37:05;;;;;;;219.90;110.68;;;;;;;;;;9991113;29;20076;-59
2021/12/30 16:42:04;;;;;;;206.20;80.25;;;;;;;;;;9996873;29;20116;-59
2021/12/30 16:47:05;;;;;;;207.38;89.68;;;;;;;;;;10012468;29;20130;-58
2021/12/30 16:52:05;;;;;;;175.52;62.83;;;;;;;;;;9986538;29;20183;-58
2021/12/30 16:57:04;;;;;;;173.20;81.72;;;;;;;;;;9970769;29;20183;-57
2021/12/30 17:02:04;;;;;;;154.23;63.22;;;;;;;;;;9982713;29;20094;-56
2021/12/30 17:07:06;;;;;;;126.90;68.57;;;;;;;;;;9980226;29;20068;-59
2021/12/30 17:12:09;;;;;;;205.13;88.65;;;;;;;;;;9985428;29;20506;-58
2021/12/30 17:17:08;;;;;;;326.23;123.25;;;;;;;;;;9997170;29;20544;-59
2021/12/30 17:22:07;;;;;;;146.93;66.20;;;;;;;;;;9994548;29;20071;-59
2021/12/30 17:27:05;;;;;;;153.07;61.63;;;;;;;;;;9990454;29;20075;-59
2021/12/30 17:32:04;;;;;;;201.07;94.07;;;;;;;;;;10003310;29;20517;-58
2021/12/30 17:37:04;;;;;;;230.90;96.03;;;;;;;;;;9979636;29;20072;-58
2021/12/30 17:42:03;;;;;;;132.80;62.13;;;;;;;;;;9972708;29;20071;-57
2021/12/30 17:47:01;;;;;;;152.95;49.15;;;;;;;;;;9981800;29;20068;-57
2021/12/30 17:52:01;;;;;;;138.63;61.13;;;;;;;;;;9990948;29;20561;-55
2021/12/30 17:57:01;;;;;;;119.10;60.03;;;;;;;;;;9990310;29;20095;-57
2021/12/30 18:02:00;;;;;;;73.75;41.20;;;;;;;;;;9971284;29;20071;-56
2021/12/30 18:06:58;;;;;;;72.60;42.88;;;;;;;;;;9985228;29;20072;-57
2021/12/30 18:11:57;;;;;;;104.07;60.45;;;;;;;;;;9993551;29;20075;-58
2021/12/30 18:17:01;;;;;;;98.18;57.22;;;;;;;;;;10023277;29;20083;-55
2021/12/30 18:22:00;;;;;;;65.07;42.50;;;;;;;;;;9988411;29;20075;-57
2021/12/30 18:26:59;;;;;;;107.38;66.63;;;;;;;;;;9983446;29;20091;-58
2021/12/30 18:32:01;;;;;;;91.43;54.38;;;;;;;;;;9981134;29;20493;-58
2021/12/30 18:37:02;;;;;;;67.97;43.22;;;;;;;;;;9990417;29;20094;-57
2021/12/30 18:42:01;;;;;;;78.53;52.85;;;;;;;;;;9987172;29;20083;-58
2021/12/30 18:47:00;;;;;;;75.85;50.72;;;;;;;;;;9979187;29;20462;-56
2021/12/30 18:51:59;;;;;;;86.43;56.75;;;;;;;;;;9981845;29;20087;-57
2021/12/30 18:56:58;;;;;;;96.13;63.00;;;;;;;;;;9984100;29;20083;-58
2021/12/30 19:01:57;;;;;;;61.42;42.70;;;;;;;;;;9997728;29;20079;-59
2021/12/30 19:06:58;;;;;;;82.10;53.33;;;;;;;;;;9988756;29;20075;-59
2021/12/30 19:11:59;;;;;;;111.68;52.67;;;;;;;;;;9980312;29;20070;-58
2021/12/30 19:16:59;;;;;;;118.85;48.13;;;;;;;;;;9982205;29;20140;-58
2021/12/30 19:21:57;;;;;;;107.75;62.45;;;;;;;;;;9989083;29;20550;-59
2021/12/30 19:26:55;;;;;;;164.80;72.38;;;;;;;;;;9995461;29;20079;-58
2021/12/30 19:31:54;;;;;;;111.47;59.55;;;;;;;;;;9997341;29;20080;-56
2021/12/30 19:36:53;;;;;;;97.07;55.03;;;;;;;;;;9982071;29;20130;-58
2021/12/30 19:41:52;;;;;;;96.78;59.80;;;;;;;;;;9977817;29;20079;-59
2021/12/30 19:46:50;;;;;;;42.15;26.33;;;;;;;;;;9984797;29;20076;-58
2021/12/30 19:51:49;;;;;;;47.80;29.45;;;;;;;;;;9992540;29;20193;-59
2021/12/30 19:56:48;;;;;;;29.42;21.10;;;;;;;;;;9984864;29;20076;-56
2021/12/30 20:01:47;;;;;;;44.33;30.02;;;;;;;;;;9982192;29;20080;-58
2021/12/30 20:06:45;;;;;;;44.47;29.85;;;;;;;;;;9980979;29;20072;-58
2021/12/30 20:11:43;;;;;;;38.10;28.35;;;;;;;;;;9984682;29;20076;-58
2021/12/30 20:16:43;;;;;;;41.30;33.05;;;;;;;;;;9992443;29;20106;-58
2021/12/30 20:21:42;;;;;;;45.10;31.17;;;;;;;;;;10002085;29;20075;-58
2021/12/30 20:26:40;;;;;;;32.03;26.05;;;;;;;;;;9991774;29;20082;-56
2021/12/30 20:31:40;;;;;;;37.67;25.23;;;;;;;;;;9982886;29;20078;-54
2021/12/30 20:36:40;;;;;;;26.45;19.30;;;;;;;;;;9982045;29;20076;-58
2021/12/30 20:41:39;;;;;;;34.15;23.65;;;;;;;;;;9993596;29;20375;-56
2021/12/30 20:46:38;;;;;;;57.60;36.83;;;;;;;;;;9995714;29;20110;-55
2021/12/30 20:51:37;;;;;;;30.38;22.70;;;;;;;;;;9990450;29;20118;-59
2021/12/30 20:56:37;;;;;;;27.23;21.13;;;;;;;;;;9984099;29;20087;-57
2021/12/30 21:01:35;;;;;;;33.70;26.70;;;;;;;;;;9999128;29;20082;-59
2021/12/30 21:06:34;;;;;;;32.72;23.42;;;;;;;;;;9995120;29;20090;-58
2021/12/30 21:11:33;;;;;;;28.70;20.95;;;;;;;;;;9986109;29;20487;-59
2021/12/30 21:16:32;;;;;;;32.00;23.15;;;;;;;;;;9989302;29;20553;-59
2021/12/30 21:21:31;;;;;;;33.15;23.33;;;;;;;;;;9985302;29;20087;-59
2021/12/30 21:26:30;;;;;;;55.58;35.17;;;;;;;;;;9981587;29;20080;-59
2021/12/30 21:31:28;;;;;;;58.75;38.75;;;;;;;;;;9976948;29;20091;-58
2021/12/30 21:36:29;;;;;;;36.97;27.33;;;;;;;;;;9973105;29;20119;-59
2021/12/30 21:41:28;;;;;;;31.08;21.90;;;;;;;;;;9989769;29;20079;-56
2021/12/30 21:46:26;;;;;;;36.33;25.67;;;;;;;;;;9976025;29;20071;-59
2021/12/30 21:51:25;;;;;;;40.13;27.55;;;;;;;;;;9976189;29;20509;-59
2021/12/30 21:56:25;;;;;;;33.58;23.70;;;;;;;;;;9990231;29;20451;-58
2021/12/30 22:01:24;;;;;;;33.45;23.48;;;;;;;;;;10006226;29;20074;-58
2021/12/30 22:06:22;;;;;;;32.67;24.10;;;;;;;;;;9989296;29;20071;-58
2021/12/30 22:11:21;;;;;;;28.70;21.15;;;;;;;;;;9989272;29;20074;-58
2021/12/30 22:16:20;;;;;;;28.83;20.83;;;;;;;;;;9986737;29;20068;-57
2021/12/30 22:21:39;;;;;;;29.38;20.30;;;;;;;;;;9986957;29;20075;-59
2021/12/30 22:26:38;;;;;;;25.35;19.95;;;;;;;;;;9973885;29;20072;-58
2021/12/30 22:31:38;;;;;;;24.98;19.88;;;;;;;;;;9966582;29;20354;-59
2021/12/30 22:36:41;;;;;;;28.05;21.73;;;;;;;;;;9965346;29;20068;-58
2021/12/30 22:41:40;;;;;;;24.92;17.20;;;;;;;;;;9969735;29;20076;-59
2021/12/30 22:46:40;;;;;;;25.17;17.73;;;;;;;;;;9966789;29;20072;-60
2021/12/30 22:51:38;;;;;;;20.90;16.33;;;;;;;;;;9966129;29;20079;-60
2021/12/30 22:56:37;;;;;;;24.10;17.73;;;;;;;;;;9968372;29;20099;-60
2021/12/30 23:01:35;;;;;;;28.50;20.63;;;;;;;;;;9964060;29;20084;-59
2021/12/30 23:06:37;;;;;;;25.42;16.98;;;;;;;;;;9998417;29;20094;-60
2021/12/30 23:11:36;;;;;;;25.35;18.88;;;;;;;;;;10000164;29;20078;-60
2021/12/30 23:16:35;;;;;;;20.65;14.57;;;;;;;;;;10030159;29;20581;-59
2021/12/30 23:21:37;;;;;;;21.08;15.60;;;;;;;;;;10026167;29;20079;-59
2021/12/30 23:26:36;;;;;;;25.77;18.60;;;;;;;;;;10019018;29;20098;-59
2021/12/30 23:31:36;;;;;;;23.10;18.08;;;;;;;;;;10021276;29;20636;-59
2021/12/30 23:36:36;;;;;;;32.78;22.33;;;;;;;;;;10000116;29;20101;-59
2021/12/30 23:41:34;;;;;;;24.48;17.85;;;;;;;;;;10014571;29;20068;-59
2021/12/30 23:46:33;;;;;;;19.23;15.13;;;;;;;;;;9999746;29;20067;-58
2021/12/30 23:51:32;;;;;;;25.80;18.58;;;;;;;;;;10018820;29;20090;-59
2021/12/30 23:56:32;;;;;;;34.88;25.83;;;;;;;;;;9999871;29;20102;-59
